createdAt,value
2023-03-26T00:01:52.076Z,80.68
2023-03-26T00:04:54.752Z,81.41
2023-03-26T00:07:57.518Z,81.97
2023-03-26T00:11:01.285Z,82.26
2023-03-26T00:14:05.894Z,82.13
2023-03-26T00:17:08.725Z,82.41
2023-03-26T00:20:11.810Z,82.47
2023-03-26T00:23:14.632Z,82.69
2023-03-26T00:26:17.650Z,82.88
2023-03-26T00:29:20.454Z,82.68
2023-03-26T00:32:28.010Z,82.65
2023-03-26T00:35:30.846Z,82.85
2023-03-26T00:38:39.072Z,82.70
2023-03-26T00:41:43.441Z,82.15
2023-03-26T00:44:46.535Z,81.99
2023-03-26T00:47:49.392Z,81.82
2023-03-26T00:50:52.189Z,81.08
2023-03-26T00:53:55.567Z,81.63
2023-03-26T00:56:58.262Z,81.96
2023-03-26T01:00:13.155Z,81.40
2023-03-26T01:03:26.939Z,81.78
2023-03-26T01:06:36.712Z,81.90
2023-03-26T01:09:45.850Z,82.52
2023-03-26T01:12:48.668Z,82.27
2023-03-26T01:15:53.131Z,82.17
2023-03-26T01:18:58.891Z,82.07
2023-03-26T01:22:01.865Z,82.16
2023-03-26T01:25:05.713Z,82.35
2023-03-26T01:28:12.735Z,82.58
2023-03-26T01:31:20.049Z,82.17
2023-03-26T01:34:30.754Z,81.68
2023-03-26T01:38:02.707Z,82.72
2023-03-26T01:41:24.084Z,82.74
2023-03-26T01:44:30.165Z,82.59
2023-03-26T01:47:35.024Z,82.31
2023-03-26T01:50:37.791Z,82.38
2023-03-26T01:53:48.482Z,82.31
2023-03-26T01:57:09.243Z,82.69
2023-03-26T02:00:22.798Z,82.93
2023-03-26T02:03:31.343Z,81.62
2023-03-26T02:06:49.642Z,82.52
2023-03-26T02:09:58.373Z,83.38
2023-03-26T02:13:01.569Z,83.48
2023-03-26T02:16:07.633Z,80.96
2023-03-26T02:19:15.971Z,81.43
2023-03-26T02:22:19.361Z,82.17
2023-03-26T02:25:23.592Z,83.70
2023-03-26T02:28:27.167Z,84.71
2023-03-26T02:31:30.291Z,84.43
2023-03-26T02:34:33.596Z,84.60
2023-03-26T02:37:36.435Z,85.43
2023-03-26T02:40:48.386Z,85.67
2023-03-26T02:43:51.766Z,85.65
2023-03-26T02:46:58.077Z,85.71
2023-03-26T02:50:22.243Z,85.58
2023-03-26T02:53:45.060Z,84.63
2023-03-26T02:57:11.264Z,85.51
2023-03-26T03:00:22.820Z,85.69
2023-03-26T03:03:27.759Z,85.89
2023-03-26T03:06:33.094Z,85.79
2023-03-26T03:09:36.104Z,86.04
2023-03-26T03:12:57.372Z,86.46
2023-03-26T03:16:00.113Z,86.79
2023-03-26T03:19:03.074Z,86.56
2023-03-26T03:22:12.492Z,86.51
2023-03-26T03:25:17.634Z,86.52
2023-03-26T03:28:22.677Z,86.11
2023-03-26T03:31:26.714Z,86.34
2023-03-26T03:34:34.253Z,87.43
2023-03-26T03:37:37.096Z,86.50
2023-03-26T03:40:44.275Z,86.56
2023-03-26T03:43:47.255Z,87.19
2023-03-26T03:46:57.222Z,86.48
2023-03-26T03:50:00.327Z,86.33
2023-03-26T03:53:05.816Z,86.90
2023-03-26T03:56:10.475Z,86.62
2023-03-26T03:59:51.708Z,86.72
2023-03-26T04:02:54.752Z,86.99
2023-03-26T04:06:02.317Z,86.90
2023-03-26T04:09:05.525Z,86.79
2023-03-26T04:12:08.383Z,87.40
2023-03-26T04:15:16.922Z,87.47
2023-03-26T04:18:26.403Z,87.72
2023-03-26T04:21:34.083Z,87.25
2023-03-26T04:24:40.297Z,86.82
2023-03-26T04:27:58.538Z,87.75
2023-03-26T04:31:29.572Z,88.08
2023-03-26T04:34:34.325Z,88.40
2023-03-26T04:37:47.828Z,88.98
2023-03-26T04:41:01.204Z,89.30
2023-03-26T04:44:36.949Z,90.20
2023-03-26T04:47:46.737Z,89.92
2023-03-26T04:50:50.460Z,89.58
2023-03-26T04:54:00.464Z,89.21
2023-03-26T04:57:39.478Z,88.18
2023-03-26T05:00:47.618Z,87.99
2023-03-26T05:03:50.655Z,88.56
2023-03-26T05:06:54.322Z,88.62
2023-03-26T05:10:12.693Z,87.98
2023-03-26T05:13:35.859Z,87.90
2023-03-26T05:16:44.977Z,87.65
2023-03-26T05:19:47.951Z,87.59
2023-03-26T05:22:51.028Z,86.93
2023-03-26T05:26:04.121Z,86.57
2023-03-26T05:29:07.280Z,86.18
2023-03-26T05:32:18.723Z,85.80
2023-03-26T05:35:22.963Z,85.60
2023-03-26T05:38:26.213Z,85.29
2023-03-26T05:41:29.315Z,85.38
2023-03-26T05:44:32.086Z,85.26
2023-03-26T05:47:39.327Z,84.60
2023-03-26T05:50:42.478Z,84.61
2023-03-26T05:53:45.844Z,84.52
2023-03-26T05:57:11.297Z,84.47
2023-03-26T06:00:43.382Z,83.93
2023-03-26T06:03:48.604Z,84.06
2023-03-26T06:06:54.812Z,83.64
2023-03-26T06:09:57.686Z,83.18
2023-03-26T06:13:00.430Z,83.40
2023-03-26T06:16:03.369Z,82.87
2023-03-26T06:19:09.388Z,82.10
2023-03-26T06:22:38.533Z,81.11
2023-03-26T06:25:51.755Z,81.07
2023-03-26T06:29:14.797Z,80.81
2023-03-26T06:32:26.321Z,80.58
2023-03-26T06:36:01.635Z,79.69
2023-03-26T06:39:07.644Z,78.81
2023-03-26T06:42:12.990Z,78.64
2023-03-26T06:45:33.431Z,77.59
2023-03-26T06:48:55.044Z,76.28
2023-03-26T06:52:16.562Z,77.43
2023-03-26T06:55:37.891Z,78.85
2023-03-26T06:58:58.181Z,77.70
2023-03-26T07:02:07.435Z,77.41
2023-03-26T07:05:29.070Z,76.73
2023-03-26T07:08:50.727Z,76.06
2023-03-26T07:12:12.362Z,75.15
2023-03-26T07:15:24.405Z,74.12
2023-03-26T07:18:30.288Z,72.89
2023-03-26T07:21:34.399Z,72.16
2023-03-26T07:24:42.003Z,69.29
2023-03-26T07:28:01.121Z,67.26
2023-03-26T07:31:30.825Z,65.36
2023-03-26T07:35:20.823Z,63.89
2023-03-26T07:39:13.098Z,62.84
2023-03-26T07:43:10.294Z,60.03
2023-03-26T07:46:29.348Z,58.65
2023-03-26T07:50:04.926Z,58.85
2023-03-26T07:53:23.390Z,57.71
2023-03-26T07:56:58.893Z,59.15
2023-03-26T08:00:22.353Z,59.84
2023-03-26T08:03:51.309Z,61.29
2023-03-26T08:07:45.199Z,61.09
2023-03-26T08:11:07.367Z,62.84
2023-03-26T08:14:41.108Z,62.69
2023-03-26T08:17:54.496Z,63.08
2023-03-26T08:21:11.316Z,63.09
2023-03-26T08:24:32.967Z,63.94
2023-03-26T08:27:43.436Z,63.21
2023-03-26T08:30:47.150Z,62.30
2023-03-26T08:33:50.225Z,61.88
2023-03-26T08:36:52.963Z,61.12
2023-03-26T08:39:56.064Z,60.89
2023-03-26T08:43:21.380Z,58.53
2023-03-26T08:46:26.916Z,56.62
2023-03-26T08:49:32.510Z,53.13
2023-03-26T08:52:41.908Z,52.73
2023-03-26T08:56:01.637Z,51.85
2023-03-26T08:59:34.785Z,51.82
2023-03-26T09:02:53.123Z,49.59
2023-03-26T09:06:33.145Z,51.75
2023-03-26T09:09:57.270Z,47.88
2023-03-26T09:13:22.970Z,48.60
2023-03-26T09:16:54.023Z,49.67
2023-03-26T09:20:24.311Z,50.51
2023-03-26T09:23:45.420Z,50.17
2023-03-26T09:26:59.689Z,49.27
2023-03-26T09:30:21.252Z,49.27
2023-03-26T09:33:49.681Z,49.43
2023-03-26T09:37:14.169Z,47.67
2023-03-26T09:40:19.292Z,46.41
2023-03-26T09:43:50.001Z,45.90
2023-03-26T09:47:31.942Z,45.56
2023-03-26T09:50:46.785Z,44.39
2023-03-26T09:54:10.511Z,42.67
2023-03-26T09:57:15.595Z,42.59
2023-03-26T10:00:24.603Z,44.12
2023-03-26T10:03:48.802Z,43.14
2023-03-26T10:07:01.475Z,43.30
2023-03-26T10:10:41.743Z,42.40
2023-03-26T10:14:03.910Z,42.89
2023-03-26T10:17:33.888Z,43.29
2023-03-26T10:21:01.301Z,41.24
2023-03-26T10:24:30.932Z,40.29
2023-03-26T10:27:55.146Z,40.13
2023-03-26T10:31:16.019Z,39.06
2023-03-26T10:34:29.417Z,41.13
2023-03-26T10:37:38.257Z,42.15
2023-03-26T10:40:48.851Z,39.93
2023-03-26T10:44:05.262Z,40.67
2023-03-26T10:47:31.330Z,38.57
2023-03-26T10:51:03.546Z,38.46
2023-03-26T10:54:30.671Z,38.92
2023-03-26T10:57:44.272Z,39.54
2023-03-26T11:00:56.224Z,38.75
2023-03-26T11:04:13.961Z,38.21
2023-03-26T11:07:30.414Z,38.83
2023-03-26T11:10:55.132Z,38.62
2023-03-26T11:14:02.751Z,37.98
2023-03-26T11:17:40.466Z,38.56
2023-03-26T11:21:18.820Z,38.29
2023-03-26T11:24:43.457Z,37.73
2023-03-26T11:28:05.895Z,38.51
2023-03-26T11:31:41.064Z,40.07
2023-03-26T11:35:05.995Z,41.57
2023-03-26T11:38:39.658Z,39.27
2023-03-26T11:41:45.754Z,35.95
2023-03-26T11:45:08.320Z,36.37
2023-03-26T11:48:19.394Z,38.36
2023-03-26T11:51:34.015Z,37.56
2023-03-26T11:54:37.958Z,37.09
2023-03-26T11:57:46.521Z,38.60
2023-03-26T12:00:53.012Z,37.15
2023-03-26T12:04:15.938Z,36.79
2023-03-26T12:07:22.776Z,37.67
2023-03-26T12:10:25.775Z,38.46
2023-03-26T12:13:38.323Z,38.67
2023-03-26T12:17:04.427Z,38.54
2023-03-26T12:20:22.832Z,38.77
2023-03-26T12:23:43.835Z,35.29
2023-03-26T12:26:46.877Z,35.71
2023-03-26T12:30:00.243Z,36.18
2023-03-26T12:33:27.165Z,35.36
2023-03-26T12:36:33.427Z,35.29
2023-03-26T12:40:06.537Z,34.61
2023-03-26T12:44:54.324Z,35.92
2023-03-26T12:48:00.155Z,35.23
2023-03-26T12:50:15.784Z,33.27
2023-03-26T12:53:21.954Z,31.81
2023-03-26T12:56:38.675Z,33.85
2023-03-26T13:00:08.888Z,29.68
2023-03-26T13:03:14.927Z,30.77
2023-03-26T13:06:59.288Z,31.77
2023-03-26T13:10:21.249Z,32.47
2023-03-26T13:13:44.368Z,32.42
2023-03-26T13:17:04.663Z,32.35
2023-03-26T13:20:16.427Z,32.63
2023-03-26T13:23:42.984Z,32.19
2023-03-26T13:27:04.270Z,32.60
2023-03-26T13:30:15.112Z,32.77
2023-03-26T13:33:44.487Z,32.58
2023-03-26T13:37:20.164Z,30.97
2023-03-26T13:40:37.110Z,30.79
2023-03-26T13:44:23.271Z,29.70
2023-03-26T13:47:29.302Z,29.11
2023-03-26T13:50:38.988Z,30.32
2023-03-26T13:53:47.848Z,30.31
2023-03-26T13:56:55.252Z,29.79
2023-03-26T14:00:06.256Z,29.82
2023-03-26T14:03:26.741Z,28.34
2023-03-26T14:06:42.460Z,28.27
2023-03-26T14:09:54.555Z,28.23
2023-03-26T14:13:04.359Z,28.51
2023-03-26T14:16:17.056Z,27.62
2023-03-26T14:19:51.177Z,28.23
2023-03-26T14:23:09.737Z,27.25
2023-03-26T14:26:43.673Z,27.68
2023-03-26T14:30:22.644Z,28.02
2023-03-26T14:33:46.583Z,27.01
2023-03-26T14:37:06.009Z,28.72
2023-03-26T14:40:45.982Z,29.00
2023-03-26T14:44:17.842Z,29.39
2023-03-26T14:47:22.104Z,28.96
2023-03-26T14:51:09.392Z,29.06
2023-03-26T14:54:25.414Z,28.12
2023-03-26T14:58:09.510Z,29.00
2023-03-26T15:01:34.119Z,29.28
2023-03-26T15:04:58.186Z,30.20
2023-03-26T15:08:33.795Z,29.80
2023-03-26T15:12:12.238Z,30.09
2023-03-26T15:15:35.646Z,30.43
2023-03-26T15:18:56.741Z,31.04
2023-03-26T15:22:06.072Z,31.27
2023-03-26T15:25:11.430Z,31.79
2023-03-26T15:28:16.956Z,31.88
2023-03-26T15:31:57.748Z,32.68
2023-03-26T15:35:13.237Z,32.88
2023-03-26T15:38:34.442Z,32.99
2023-03-26T15:41:52.277Z,33.22
2023-03-26T15:45:30.173Z,33.78
2023-03-26T15:48:35.769Z,34.28
2023-03-26T15:51:47.567Z,34.17
2023-03-26T15:55:04.137Z,34.26
2023-03-26T15:58:28.779Z,34.72
2023-03-26T16:01:46.505Z,34.85
2023-03-26T16:05:09.592Z,34.80
2023-03-26T16:08:38.687Z,35.10
2023-03-26T16:12:16.858Z,35.27
2023-03-26T16:15:28.438Z,35.64
2023-03-26T16:18:35.958Z,35.81
2023-03-26T16:21:45.896Z,36.71
2023-03-26T16:25:28.566Z,36.71
2023-03-26T16:28:56.870Z,37.08
2023-03-26T16:32:11.438Z,37.29
2023-03-26T16:35:14.315Z,37.36
2023-03-26T16:38:18.695Z,38.34
2023-03-26T16:41:27.140Z,37.41
2023-03-26T16:44:39.099Z,37.57
2023-03-26T16:48:10.459Z,38.17
2023-03-26T16:51:34.356Z,38.67
2023-03-26T16:54:52.621Z,39.16
2023-03-26T16:58:23.256Z,39.55
2023-03-26T17:01:48.401Z,40.19
2023-03-26T17:05:01.169Z,40.94
2023-03-26T17:08:35.606Z,41.55
2023-03-26T17:11:57.729Z,41.95
2023-03-26T17:15:16.985Z,40.75
2023-03-26T17:18:49.261Z,40.68
2023-03-26T17:22:14.027Z,40.57
2023-03-26T17:25:34.259Z,41.38
2023-03-26T17:29:28.295Z,42.09
2023-03-26T17:32:54.491Z,41.18
2023-03-26T17:36:12.768Z,40.86
2023-03-26T17:39:21.887Z,41.34
2023-03-26T17:42:36.226Z,42.60
2023-03-26T17:45:42.194Z,43.27
2023-03-26T17:48:49.437Z,43.11
2023-03-26T17:52:01.089Z,43.73
2023-03-26T17:55:04.704Z,43.80
2023-03-26T17:58:27.217Z,43.32
2023-03-26T18:01:34.664Z,43.86
2023-03-26T18:04:42.264Z,43.18
2023-03-26T18:08:12.748Z,42.26
2023-03-26T18:11:36.242Z,40.47
2023-03-26T18:15:18.390Z,40.53
2023-03-26T18:18:53.561Z,40.30
2023-03-26T18:22:03.764Z,40.41
2023-03-26T18:25:07.121Z,40.38
2023-03-26T18:28:14.380Z,41.17
2023-03-26T18:31:19.493Z,41.22
2023-03-26T18:34:24.508Z,41.25
2023-03-26T18:37:34.784Z,41.94
2023-03-26T18:40:42.676Z,42.29
2023-03-26T18:43:45.830Z,42.34
2023-03-26T18:46:49.137Z,42.52
2023-03-26T18:49:55.772Z,42.59
2023-03-26T18:53:00.656Z,42.54
2023-03-26T18:56:27.714Z,42.78
2023-03-26T18:59:35.234Z,43.11
2023-03-26T19:02:39.194Z,43.90
2023-03-26T19:05:42.165Z,45.62
2023-03-26T19:08:47.122Z,47.78
2023-03-26T19:11:55.921Z,47.45
2023-03-26T19:15:15.618Z,48.43
2023-03-26T19:18:22.987Z,48.39
2023-03-26T19:21:26.298Z,48.09
2023-03-26T19:24:29.803Z,49.06
2023-03-26T19:27:33.143Z,50.00
2023-03-26T19:30:41.978Z,51.14
2023-03-26T19:33:53.418Z,52.37
2023-03-26T19:37:01.247Z,52.58
2023-03-26T19:40:19.249Z,53.02
2023-03-26T19:43:23.490Z,53.70
2023-03-26T19:46:28.755Z,51.03
2023-03-26T19:49:42.078Z,50.92
2023-03-26T19:52:45.304Z,51.30
2023-03-26T19:56:09.759Z,51.29
2023-03-26T19:59:14.329Z,52.19
2023-03-26T20:02:18.210Z,50.96
2023-03-26T20:05:27.001Z,50.91
2023-03-26T20:08:30.073Z,52.15
2023-03-26T20:11:38.052Z,52.74
2023-03-26T20:14:43.477Z,51.90
2023-03-26T20:17:50.651Z,51.39
2023-03-26T20:20:54.438Z,55.38
2023-03-26T20:23:59.305Z,59.82
2023-03-26T20:27:02.299Z,61.05
2023-03-26T20:30:07.228Z,58.35
2023-03-26T20:33:26.833Z,56.57
2023-03-26T20:36:32.999Z,58.86
2023-03-26T20:39:37.903Z,58.71
2023-03-26T20:42:42.712Z,58.33
2023-03-26T20:45:46.115Z,62.08
2023-03-26T20:48:49.551Z,65.61
2023-03-26T20:51:52.826Z,67.96
2023-03-26T20:54:56.168Z,68.92
2023-03-26T20:57:59.661Z,71.89
2023-03-26T21:01:03.069Z,73.81
2023-03-26T21:04:06.651Z,74.50
2023-03-26T21:07:17.679Z,74.21
2023-03-26T21:10:25.494Z,74.42
2023-03-26T21:13:43.008Z,74.11
2023-03-26T21:16:46.196Z,74.18
2023-03-26T21:19:49.866Z,75.13
2023-03-26T21:23:16.816Z,75.29
2023-03-26T21:26:41.651Z,75.56
2023-03-26T21:29:45.048Z,75.76
2023-03-26T21:32:48.699Z,76.53
2023-03-26T21:35:57.140Z,76.59
2023-03-26T21:39:00.331Z,77.12
2023-03-26T21:42:04.663Z,76.89
2023-03-26T21:45:09.569Z,76.34
2023-03-26T21:48:12.932Z,75.50
2023-03-26T21:51:17.906Z,75.35
2023-03-26T21:54:29.575Z,76.20
2023-03-26T21:57:34.838Z,76.31
2023-03-26T22:00:50.770Z,76.49
2023-03-26T22:04:15.141Z,76.80
2023-03-26T22:07:23.363Z,77.04
2023-03-26T22:10:27.226Z,77.09
2023-03-26T22:13:31.093Z,77.12
2023-03-26T22:16:33.936Z,77.53
2023-03-26T22:19:37.280Z,77.81
2023-03-26T22:22:48.854Z,77.40
2023-03-26T22:25:52.256Z,76.44
2023-03-26T22:28:55.123Z,77.07
2023-03-26T22:31:57.977Z,77.84
2023-03-26T22:35:01.259Z,78.10
2023-03-26T22:38:05.179Z,78.35
2023-03-26T22:41:08.851Z,77.97
2023-03-26T22:44:19.612Z,78.17
2023-03-26T22:47:22.804Z,77.96
2023-03-26T22:50:27.192Z,78.02
2023-03-26T22:53:31.013Z,76.98
2023-03-26T22:56:33.837Z,76.94
2023-03-26T22:59:36.810Z,76.65
2023-03-26T23:02:40.539Z,77.05
2023-03-26T23:05:43.344Z,77.94
2023-03-26T23:08:46.432Z,78.82
2023-03-26T23:11:49.260Z,79.42
2023-03-26T23:14:53.094Z,80.19
2023-03-26T23:17:58.953Z,80.54
2023-03-26T23:21:01.916Z,81.91
2023-03-26T23:24:05.238Z,81.48
2023-03-26T23:27:08.046Z,80.64
2023-03-26T23:30:11.613Z,80.62
2023-03-26T23:33:15.002Z,80.63
2023-03-26T23:36:19.698Z,80.59
2023-03-26T23:39:22.409Z,81.33
2023-03-26T23:42:28.265Z,82.07
2023-03-26T23:45:31.800Z,82.64
2023-03-26T23:48:34.752Z,82.06
2023-03-26T23:51:38.211Z,80.90
2023-03-26T23:54:42.568Z,80.77
2023-03-26T23:57:45.306Z,81.17
